sensor_id;sensor_type;location;lat;lon;timestamp;P1;durP1;ratioP1;P2;durP2;ratioP2
19599;SDS011;9947;57.722;12.012;2023-07-13T00:02:06;10.63;;;4.20;;
19599;SDS011;9947;57.722;12.012;2023-07-13T00:04:36;13.73;;;3.73;;
19599;SDS011;9947;57.722;12.012;2023-07-13T00:07:06;21.43;;;4.27;;
19599;SDS011;9947;57.722;12.012;2023-07-13T00:09:33;14.50;;;4.43;;
19599;SDS011;9947;57.722;12.012;2023-07-13T00:12:02;13.53;;;3.67;;
19599;SDS011;9947;57.722;12.012;2023-07-13T00:14:30;12.97;;;4.10;;
19599;SDS011;9947;57.722;12.012;2023-07-13T00:17:01;9.07;;;3.87;;
19599;SDS011;9947;57.722;12.012;2023-07-13T00:19:33;10.03;;;3.80;;
19599;SDS011;9947;57.722;12.012;2023-07-13T00:22:02;10.27;;;4.10;;
19599;SDS011;9947;57.722;12.012;2023-07-13T00:24:30;14.87;;;3.97;;
19599;SDS011;9947;57.722;12.012;2023-07-13T00:26:58;13.47;;;4.03;;
19599;SDS011;9947;57.722;12.012;2023-07-13T00:29:28;7.03;;;3.30;;
19599;SDS011;9947;57.722;12.012;2023-07-13T00:31:56;9.97;;;3.30;;
19599;SDS011;9947;57.722;12.012;2023-07-13T00:34:24;12.07;;;4.13;;
19599;SDS011;9947;57.722;12.012;2023-07-13T00:36:54;9.77;;;3.90;;
19599;SDS011;9947;57.722;12.012;2023-07-13T00:39:23;13.97;;;3.73;;
19599;SDS011;9947;57.722;12.012;2023-07-13T00:42:00;13.47;;;3.70;;
19599;SDS011;9947;57.722;12.012;2023-07-13T00:44:29;13.73;;;4.17;;
19599;SDS011;9947;57.722;12.012;2023-07-13T00:46:57;15.07;;;4.17;;
19599;SDS011;9947;57.722;12.012;2023-07-13T00:49:25;12.27;;;4.00;;
19599;SDS011;9947;57.722;12.012;2023-07-13T00:51:55;11.93;;;3.90;;
19599;SDS011;9947;57.722;12.012;2023-07-13T00:54:26;12.87;;;4.70;;
19599;SDS011;9947;57.722;12.012;2023-07-13T00:57:00;12.87;;;4.10;;
19599;SDS011;9947;57.722;12.012;2023-07-13T00:59:30;15.73;;;4.10;;
19599;SDS011;9947;57.722;12.012;2023-07-13T01:01:59;13.20;;;3.80;;
19599;SDS011;9947;57.722;12.012;2023-07-13T01:04:27;9.13;;;4.37;;
19599;SDS011;9947;57.722;12.012;2023-07-13T01:06:55;9.30;;;4.23;;
19599;SDS011;9947;57.722;12.012;2023-07-13T01:09:26;14.70;;;4.27;;
19599;SDS011;9947;57.722;12.012;2023-07-13T01:11:53;12.53;;;4.07;;
19599;SDS011;9947;57.722;12.012;2023-07-13T01:14:24;13.97;;;4.10;;
19599;SDS011;9947;57.722;12.012;2023-07-13T01:16:51;9.60;;;3.70;;
19599;SDS011;9947;57.722;12.012;2023-07-13T01:19:24;15.60;;;3.90;;
19599;SDS011;9947;57.722;12.012;2023-07-13T01:22:04;14.20;;;4.20;;
19599;SDS011;9947;57.722;12.012;2023-07-13T01:24:35;13.27;;;4.23;;
19599;SDS011;9947;57.722;12.012;2023-07-13T01:27:05;9.63;;;3.73;;
19599;SDS011;9947;57.722;12.012;2023-07-13T01:29:34;15.93;;;5.30;;
19599;SDS011;9947;57.722;12.012;2023-07-13T01:32:07;12.77;;;4.20;;
19599;SDS011;9947;57.722;12.012;2023-07-13T01:34:35;13.03;;;4.50;;
19599;SDS011;9947;57.722;12.012;2023-07-13T01:37:05;13.17;;;4.53;;
19599;SDS011;9947;57.722;12.012;2023-07-13T01:39:32;12.97;;;4.83;;
19599;SDS011;9947;57.722;12.012;2023-07-13T01:41:59;12.10;;;4.37;;
19599;SDS011;9947;57.722;12.012;2023-07-13T01:44:27;14.10;;;4.70;;
19599;SDS011;9947;57.722;12.012;2023-07-13T01:46:58;11.87;;;4.00;;
19599;SDS011;9947;57.722;12.012;2023-07-13T01:49:26;17.90;;;4.13;;
19599;SDS011;9947;57.722;12.012;2023-07-13T01:51:53;14.30;;;4.50;;
19599;SDS011;9947;57.722;12.012;2023-07-13T01:54:22;13.00;;;4.83;;
19599;SDS011;9947;57.722;12.012;2023-07-13T01:56:49;11.43;;;4.13;;
19599;SDS011;9947;57.722;12.012;2023-07-13T01:59:19;15.67;;;4.40;;
19599;SDS011;9947;57.722;12.012;2023-07-13T02:01:46;17.60;;;5.07;;
19599;SDS011;9947;57.722;12.012;2023-07-13T02:04:14;13.40;;;4.40;;
19599;SDS011;9947;57.722;12.012;2023-07-13T02:06:42;10.47;;;4.30;;
19599;SDS011;9947;57.722;12.012;2023-07-13T02:09:09;12.37;;;4.03;;
19599;SDS011;9947;57.722;12.012;2023-07-13T02:11:44;12.20;;;4.17;;
19599;SDS011;9947;57.722;12.012;2023-07-13T02:14:12;13.77;;;4.13;;
19599;SDS011;9947;57.722;12.012;2023-07-13T02:16:40;14.10;;;4.40;;
19599;SDS011;9947;57.722;12.012;2023-07-13T02:19:08;12.47;;;4.43;;
19599;SDS011;9947;57.722;12.012;2023-07-13T02:21:35;15.70;;;4.40;;
19599;SDS011;9947;57.722;12.012;2023-07-13T02:24:02;15.13;;;4.80;;
19599;SDS011;9947;57.722;12.012;2023-07-13T02:26:29;13.50;;;4.33;;
19599;SDS011;9947;57.722;12.012;2023-07-13T02:29:04;11.00;;;4.20;;
19599;SDS011;9947;57.722;12.012;2023-07-13T02:31:37;15.63;;;4.50;;
19599;SDS011;9947;57.722;12.012;2023-07-13T02:34:04;20.17;;;5.10;;
19599;SDS011;9947;57.722;12.012;2023-07-13T02:36:32;9.70;;;5.57;;
19599;SDS011;9947;57.722;12.012;2023-07-13T02:39:01;15.27;;;5.10;;
19599;SDS011;9947;57.722;12.012;2023-07-13T02:41:30;11.77;;;4.53;;
19599;SDS011;9947;57.722;12.012;2023-07-13T02:43:58;17.77;;;5.17;;
19599;SDS011;9947;57.722;12.012;2023-07-13T02:46:30;16.50;;;4.80;;
19599;SDS011;9947;57.722;12.012;2023-07-13T02:48:57;13.47;;;4.37;;
19599;SDS011;9947;57.722;12.012;2023-07-13T02:51:29;11.33;;;5.10;;
19599;SDS011;9947;57.722;12.012;2023-07-13T02:53:58;20.33;;;5.20;;
19599;SDS011;9947;57.722;12.012;2023-07-13T02:56:33;13.13;;;4.50;;
19599;SDS011;9947;57.722;12.012;2023-07-13T02:59:00;14.87;;;4.90;;
19599;SDS011;9947;57.722;12.012;2023-07-13T03:04:05;14.23;;;5.10;;
19599;SDS011;9947;57.722;12.012;2023-07-13T03:09:32;11.17;;;4.40;;
19599;SDS011;9947;57.722;12.012;2023-07-13T03:12:04;10.40;;;4.57;;
19599;SDS011;9947;57.722;12.012;2023-07-13T03:14:31;13.87;;;5.20;;
19599;SDS011;9947;57.722;12.012;2023-07-13T03:16:58;10.33;;;4.93;;
19599;SDS011;9947;57.722;12.012;2023-07-13T03:19:27;17.07;;;4.80;;
19599;SDS011;9947;57.722;12.012;2023-07-13T03:21:55;15.63;;;5.23;;
19599;SDS011;9947;57.722;12.012;2023-07-13T03:24:24;9.67;;;4.60;;
19599;SDS011;9947;57.722;12.012;2023-07-13T03:27:12;10.07;;;4.37;;
19599;SDS011;9947;57.722;12.012;2023-07-13T03:29:39;13.77;;;5.50;;
19599;SDS011;9947;57.722;12.012;2023-07-13T03:32:10;20.43;;;4.97;;
19599;SDS011;9947;57.722;12.012;2023-07-13T03:34:41;12.87;;;4.80;;
19599;SDS011;9947;57.722;12.012;2023-07-13T03:37:13;17.63;;;5.63;;
19599;SDS011;9947;57.722;12.012;2023-07-13T03:39:40;11.53;;;5.03;;
19599;SDS011;9947;57.722;12.012;2023-07-13T03:42:07;13.87;;;5.00;;
19599;SDS011;9947;57.722;12.012;2023-07-13T03:44:37;21.40;;;6.00;;
19599;SDS011;9947;57.722;12.012;2023-07-13T03:47:05;18.27;;;5.40;;
19599;SDS011;9947;57.722;12.012;2023-07-13T03:49:34;11.93;;;4.70;;
19599;SDS011;9947;57.722;12.012;2023-07-13T03:52:02;19.87;;;5.07;;
19599;SDS011;9947;57.722;12.012;2023-07-13T03:54:37;16.60;;;4.37;;
19599;SDS011;9947;57.722;12.012;2023-07-13T03:57:04;12.07;;;3.90;;
19599;SDS011;9947;57.722;12.012;2023-07-13T03:59:32;11.30;;;4.07;;
19599;SDS011;9947;57.722;12.012;2023-07-13T04:02:02;13.57;;;3.77;;
19599;SDS011;9947;57.722;12.012;2023-07-13T04:04:31;12.53;;;3.67;;
19599;SDS011;9947;57.722;12.012;2023-07-13T04:07:01;12.73;;;3.60;;
19599;SDS011;9947;57.722;12.012;2023-07-13T04:09:29;10.67;;;3.60;;
19599;SDS011;9947;57.722;12.012;2023-07-13T04:11:56;11.27;;;3.80;;
19599;SDS011;9947;57.722;12.012;2023-07-13T04:14:23;9.93;;;3.87;;
19599;SDS011;9947;57.722;12.012;2023-07-13T04:16:50;15.57;;;4.07;;
19599;SDS011;9947;57.722;12.012;2023-07-13T04:19:17;13.17;;;4.13;;
19599;SDS011;9947;57.722;12.012;2023-07-13T04:21:46;7.70;;;3.63;;
19599;SDS011;9947;57.722;12.012;2023-07-13T04:24:15;11.00;;;3.77;;
19599;SDS011;9947;57.722;12.012;2023-07-13T04:26:42;12.53;;;4.17;;
19599;SDS011;9947;57.722;12.012;2023-07-13T04:29:09;16.07;;;3.80;;
19599;SDS011;9947;57.722;12.012;2023-07-13T04:31:36;8.10;;;3.37;;
19599;SDS011;9947;57.722;12.012;2023-07-13T04:34:03;14.30;;;3.50;;
19599;SDS011;9947;57.722;12.012;2023-07-13T04:36:34;14.03;;;4.07;;
19599;SDS011;9947;57.722;12.012;2023-07-13T04:39:04;10.90;;;3.60;;
19599;SDS011;9947;57.722;12.012;2023-07-13T04:41:34;10.33;;;3.20;;
19599;SDS011;9947;57.722;12.012;2023-07-13T04:44:01;9.83;;;2.93;;
19599;SDS011;9947;57.722;12.012;2023-07-13T04:46:28;9.37;;;2.70;;
19599;SDS011;9947;57.722;12.012;2023-07-13T04:48:55;13.10;;;2.70;;
19599;SDS011;9947;57.722;12.012;2023-07-13T04:51:23;11.30;;;2.83;;
19599;SDS011;9947;57.722;12.012;2023-07-13T04:53:52;11.00;;;2.47;;
19599;SDS011;9947;57.722;12.012;2023-07-13T04:56:22;10.00;;;2.55;;
19599;SDS011;9947;57.722;12.012;2023-07-13T04:58:53;11.30;;;2.70;;
19599;SDS011;9947;57.722;12.012;2023-07-13T05:01:21;7.97;;;2.47;;
19599;SDS011;9947;57.722;12.012;2023-07-13T05:03:51;6.32;;;2.20;;
19599;SDS011;9947;57.722;12.012;2023-07-13T05:06:21;6.47;;;2.38;;
19599;SDS011;9947;57.722;12.012;2023-07-13T05:08:48;9.60;;;2.58;;
19599;SDS011;9947;57.722;12.012;2023-07-13T05:11:15;11.85;;;3.03;;
19599;SDS011;9947;57.722;12.012;2023-07-13T05:13:53;9.60;;;2.42;;
19599;SDS011;9947;57.722;12.012;2023-07-13T05:16:22;10.38;;;2.45;;
19599;SDS011;9947;57.722;12.012;2023-07-13T05:18:49;8.93;;;2.72;;
19599;SDS011;9947;57.722;12.012;2023-07-13T05:21:16;11.23;;;2.38;;
19599;SDS011;9947;57.722;12.012;2023-07-13T05:23:44;12.82;;;2.53;;
19599;SDS011;9947;57.722;12.012;2023-07-13T05:26:11;7.53;;;2.20;;
19599;SDS011;9947;57.722;12.012;2023-07-13T05:28:39;10.52;;;2.30;;
19599;SDS011;9947;57.722;12.012;2023-07-13T05:31:10;6.88;;;2.35;;
19599;SDS011;9947;57.722;12.012;2023-07-13T05:33:37;10.15;;;2.63;;
19599;SDS011;9947;57.722;12.012;2023-07-13T05:36:07;9.30;;;2.50;;
19599;SDS011;9947;57.722;12.012;2023-07-13T05:38:42;10.13;;;2.40;;
19599;SDS011;9947;57.722;12.012;2023-07-13T05:41:14;7.53;;;2.70;;
19599;SDS011;9947;57.722;12.012;2023-07-13T05:43:43;11.10;;;2.45;;
19599;SDS011;9947;57.722;12.012;2023-07-13T05:46:16;9.63;;;2.72;;
19599;SDS011;9947;57.722;12.012;2023-07-13T05:48:48;7.05;;;2.47;;
19599;SDS011;9947;57.722;12.012;2023-07-13T05:51:20;4.80;;;2.20;;
19599;SDS011;9947;57.722;12.012;2023-07-13T05:53:50;8.73;;;2.22;;
19599;SDS011;9947;57.722;12.012;2023-07-13T05:56:17;9.93;;;2.50;;
19599;SDS011;9947;57.722;12.012;2023-07-13T05:59:05;9.50;;;2.25;;
19599;SDS011;9947;57.722;12.012;2023-07-13T06:01:34;9.55;;;2.30;;
19599;SDS011;9947;57.722;12.012;2023-07-13T06:04:01;7.30;;;2.47;;
19599;SDS011;9947;57.722;12.012;2023-07-13T06:06:28;7.45;;;2.63;;
19599;SDS011;9947;57.722;12.012;2023-07-13T06:08:55;8.95;;;2.42;;
19599;SDS011;9947;57.722;12.012;2023-07-13T06:11:24;6.80;;;2.63;;
19599;SDS011;9947;57.722;12.012;2023-07-13T06:13:56;8.73;;;2.92;;
19599;SDS011;9947;57.722;12.012;2023-07-13T06:16:23;9.80;;;3.20;;
19599;SDS011;9947;57.722;12.012;2023-07-13T06:18:53;10.77;;;3.03;;
19599;SDS011;9947;57.722;12.012;2023-07-13T06:21:24;8.67;;;2.87;;
19599;SDS011;9947;57.722;12.012;2023-07-13T06:23:53;8.10;;;2.70;;
19599;SDS011;9947;57.722;12.012;2023-07-13T06:26:21;9.13;;;2.90;;
19599;SDS011;9947;57.722;12.012;2023-07-13T06:28:49;7.07;;;2.93;;
19599;SDS011;9947;57.722;12.012;2023-07-13T06:31:16;9.97;;;3.20;;
19599;SDS011;9947;57.722;12.012;2023-07-13T06:33:43;10.87;;;3.10;;
19599;SDS011;9947;57.722;12.012;2023-07-13T06:36:14;8.97;;;3.13;;
19599;SDS011;9947;57.722;12.012;2023-07-13T06:38:44;15.13;;;3.20;;
19599;SDS011;9947;57.722;12.012;2023-07-13T06:41:11;10.13;;;2.77;;
19599;SDS011;9947;57.722;12.012;2023-07-13T06:43:40;10.13;;;3.60;;
19599;SDS011;9947;57.722;12.012;2023-07-13T06:46:08;12.20;;;3.50;;
19599;SDS011;9947;57.722;12.012;2023-07-13T06:48:36;7.90;;;2.87;;
19599;SDS011;9947;57.722;12.012;2023-07-13T06:51:03;8.27;;;3.40;;
19599;SDS011;9947;57.722;12.012;2023-07-13T06:53:31;9.60;;;3.43;;
19599;SDS011;9947;57.722;12.012;2023-07-13T06:55:59;12.27;;;3.10;;
19599;SDS011;9947;57.722;12.012;2023-07-13T06:58:26;10.63;;;3.30;;
19599;SDS011;9947;57.722;12.012;2023-07-13T07:00:55;14.87;;;4.20;;
19599;SDS011;9947;57.722;12.012;2023-07-13T07:03:22;8.53;;;2.97;;
19599;SDS011;9947;57.722;12.012;2023-07-13T07:05:49;14.10;;;3.53;;
19599;SDS011;9947;57.722;12.012;2023-07-13T07:08:16;14.83;;;3.17;;
19599;SDS011;9947;57.722;12.012;2023-07-13T07:10:46;6.00;;;2.80;;
19599;SDS011;9947;57.722;12.012;2023-07-13T07:13:19;11.63;;;2.93;;
19599;SDS011;9947;57.722;12.012;2023-07-13T07:15:46;8.73;;;2.83;;
19599;SDS011;9947;57.722;12.012;2023-07-13T07:18:16;10.20;;;3.00;;
19599;SDS011;9947;57.722;12.012;2023-07-13T07:20:43;13.70;;;3.30;;
19599;SDS011;9947;57.722;12.012;2023-07-13T07:23:11;6.77;;;2.77;;
19599;SDS011;9947;57.722;12.012;2023-07-13T07:25:39;12.47;;;3.00;;
19599;SDS011;9947;57.722;12.012;2023-07-13T07:28:11;9.53;;;2.80;;
19599;SDS011;9947;57.722;12.012;2023-07-13T07:30:41;6.43;;;2.70;;
19599;SDS011;9947;57.722;12.012;2023-07-13T07:33:08;7.80;;;2.80;;
19599;SDS011;9947;57.722;12.012;2023-07-13T07:35:37;10.33;;;2.90;;
19599;SDS011;9947;57.722;12.012;2023-07-13T07:38:05;8.47;;;2.53;;
19599;SDS011;9947;57.722;12.012;2023-07-13T07:40:36;9.30;;;2.57;;
19599;SDS011;9947;57.722;12.012;2023-07-13T07:43:06;4.17;;;2.47;;
19599;SDS011;9947;57.722;12.012;2023-07-13T07:45:36;10.30;;;3.20;;
19599;SDS011;9947;57.722;12.012;2023-07-13T07:48:05;10.50;;;3.27;;
19599;SDS011;9947;57.722;12.012;2023-07-13T07:50:34;8.47;;;3.00;;
19599;SDS011;9947;57.722;12.012;2023-07-13T07:53:03;8.60;;;3.00;;
19599;SDS011;9947;57.722;12.012;2023-07-13T07:55:35;6.50;;;2.47;;
19599;SDS011;9947;57.722;12.012;2023-07-13T07:58:02;6.90;;;2.40;;
19599;SDS011;9947;57.722;12.012;2023-07-13T08:00:30;4.33;;;2.30;;
19599;SDS011;9947;57.722;12.012;2023-07-13T08:02:59;5.70;;;2.50;;
19599;SDS011;9947;57.722;12.012;2023-07-13T08:05:34;9.17;;;2.53;;
19599;SDS011;9947;57.722;12.012;2023-07-13T08:08:09;5.87;;;2.30;;
19599;SDS011;9947;57.722;12.012;2023-07-13T08:10:38;6.87;;;2.37;;
19599;SDS011;9947;57.722;12.012;2023-07-13T08:13:10;5.67;;;2.10;;
19599;SDS011;9947;57.722;12.012;2023-07-13T08:15:37;4.93;;;1.87;;
19599;SDS011;9947;57.722;12.012;2023-07-13T08:18:06;7.53;;;2.30;;
19599;SDS011;9947;57.722;12.012;2023-07-13T08:20:37;5.80;;;2.10;;
19599;SDS011;9947;57.722;12.012;2023-07-13T08:23:05;5.55;;;2.08;;
19599;SDS011;9947;57.722;12.012;2023-07-13T08:25:36;7.27;;;2.20;;
19599;SDS011;9947;57.722;12.012;2023-07-13T08:28:03;5.87;;;2.00;;
19599;SDS011;9947;57.722;12.012;2023-07-13T08:30:31;7.47;;;2.27;;
19599;SDS011;9947;57.722;12.012;2023-07-13T08:32:59;7.60;;;2.30;;
19599;SDS011;9947;57.722;12.012;2023-07-13T08:35:28;6.53;;;2.10;;
19599;SDS011;9947;57.722;12.012;2023-07-13T08:37:55;5.57;;;2.00;;
19599;SDS011;9947;57.722;12.012;2023-07-13T08:40:27;5.33;;;2.03;;
19599;SDS011;9947;57.722;12.012;2023-07-13T08:42:54;4.33;;;1.63;;
19599;SDS011;9947;57.722;12.012;2023-07-13T08:45:25;4.60;;;2.23;;
19599;SDS011;9947;57.722;12.012;2023-07-13T08:47:58;7.32;;;2.10;;
19599;SDS011;9947;57.722;12.012;2023-07-13T08:50:32;5.68;;;1.98;;
19599;SDS011;9947;57.722;12.012;2023-07-13T08:53:08;5.32;;;1.90;;
19599;SDS011;9947;57.722;12.012;2023-07-13T08:55:39;8.00;;;2.40;;
19599;SDS011;9947;57.722;12.012;2023-07-13T08:58:09;6.57;;;2.45;;
19599;SDS011;9947;57.722;12.012;2023-07-13T09:00:45;6.10;;;2.15;;
19599;SDS011;9947;57.722;12.012;2023-07-13T09:03:18;5.55;;;1.98;;
19599;SDS011;9947;57.722;12.012;2023-07-13T09:05:52;5.78;;;1.90;;
19599;SDS011;9947;57.722;12.012;2023-07-13T09:11:22;6.32;;;2.03;;
19599;SDS011;9947;57.722;12.012;2023-07-13T09:14:02;6.57;;;1.95;;
19599;SDS011;9947;57.722;12.012;2023-07-13T09:16:59;7.13;;;1.98;;
19599;SDS011;9947;57.722;12.012;2023-07-13T09:19:30;8.40;;;2.20;;
19599;SDS011;9947;57.722;12.012;2023-07-13T09:22:03;5.15;;;1.90;;
19599;SDS011;9947;57.722;12.012;2023-07-13T09:24:39;6.10;;;2.15;;
19599;SDS011;9947;57.722;12.012;2023-07-13T09:27:17;9.63;;;2.25;;
19599;SDS011;9947;57.722;12.012;2023-07-13T09:29:50;6.55;;;1.92;;
19599;SDS011;9947;57.722;12.012;2023-07-13T09:32:25;3.20;;;2.00;;
19599;SDS011;9947;57.722;12.012;2023-07-13T09:34:54;4.88;;;2.10;;
19599;SDS011;9947;57.722;12.012;2023-07-13T09:37:27;8.20;;;2.10;;
19599;SDS011;9947;57.722;12.012;2023-07-13T09:40:01;8.95;;;2.53;;
19599;SDS011;9947;57.722;12.012;2023-07-13T09:42:32;5.00;;;1.98;;
19599;SDS011;9947;57.722;12.012;2023-07-13T09:45:13;9.20;;;2.10;;
19599;SDS011;9947;57.722;12.012;2023-07-13T09:47:58;9.77;;;2.40;;
19599;SDS011;9947;57.722;12.012;2023-07-13T09:50:26;9.15;;;2.70;;
19599;SDS011;9947;57.722;12.012;2023-07-13T09:52:55;7.80;;;2.20;;
19599;SDS011;9947;57.722;12.012;2023-07-13T09:55:42;5.57;;;2.38;;
19599;SDS011;9947;57.722;12.012;2023-07-13T09:58:15;4.88;;;2.17;;
19599;SDS011;9947;57.722;12.012;2023-07-13T10:00:54;3.50;;;1.80;;
19599;SDS011;9947;57.722;12.012;2023-07-13T10:03:23;8.57;;;2.22;;
19599;SDS011;9947;57.722;12.012;2023-07-13T10:05:58;6.27;;;2.13;;
19599;SDS011;9947;57.722;12.012;2023-07-13T10:08:32;5.57;;;2.20;;
19599;SDS011;9947;57.722;12.012;2023-07-13T10:11:08;7.20;;;2.47;;
19599;SDS011;9947;57.722;12.012;2023-07-13T10:13:37;3.40;;;2.20;;
19599;SDS011;9947;57.722;12.012;2023-07-13T10:16:08;7.47;;;2.40;;
19599;SDS011;9947;57.722;12.012;2023-07-13T10:18:39;9.43;;;2.23;;
19599;SDS011;9947;57.722;12.012;2023-07-13T10:21:13;6.17;;;2.30;;
19599;SDS011;9947;57.722;12.012;2023-07-13T10:23:49;8.67;;;3.03;;
19599;SDS011;9947;57.722;12.012;2023-07-13T10:26:21;7.57;;;2.10;;
19599;SDS011;9947;57.722;12.012;2023-07-13T10:28:56;7.13;;;2.43;;
19599;SDS011;9947;57.722;12.012;2023-07-13T10:31:29;4.27;;;2.17;;
19599;SDS011;9947;57.722;12.012;2023-07-13T10:34:02;7.57;;;2.60;;
19599;SDS011;9947;57.722;12.012;2023-07-13T10:36:33;5.70;;;2.30;;
19599;SDS011;9947;57.722;12.012;2023-07-13T10:39:10;5.50;;;2.20;;
19599;SDS011;9947;57.722;12.012;2023-07-13T10:41:43;6.37;;;2.37;;
19599;SDS011;9947;57.722;12.012;2023-07-13T10:44:22;9.07;;;2.83;;
19599;SDS011;9947;57.722;12.012;2023-07-13T10:46:55;12.63;;;2.83;;
19599;SDS011;9947;57.722;12.012;2023-07-13T10:49:27;7.60;;;2.27;;
19599;SDS011;9947;57.722;12.012;2023-07-13T10:51:58;8.10;;;2.63;;
19599;SDS011;9947;57.722;12.012;2023-07-13T10:54:41;8.17;;;2.30;;
19599;SDS011;9947;57.722;12.012;2023-07-13T10:57:14;4.57;;;2.10;;
19599;SDS011;9947;57.722;12.012;2023-07-13T11:00:12;7.13;;;2.30;;
19599;SDS011;9947;57.722;12.012;2023-07-13T11:02:43;5.07;;;2.10;;
19599;SDS011;9947;57.722;12.012;2023-07-13T11:05:26;9.13;;;2.80;;
19599;SDS011;9947;57.722;12.012;2023-07-13T11:08:02;4.53;;;2.10;;
19599;SDS011;9947;57.722;12.012;2023-07-13T11:10:48;8.88;;;2.90;;
19599;SDS011;9947;57.722;12.012;2023-07-13T11:13:38;8.02;;;2.70;;
19599;SDS011;9947;57.722;12.012;2023-07-13T11:16:35;6.15;;;2.53;;
19599;SDS011;9947;57.722;12.012;2023-07-13T11:25:27;4.10;;;2.10;;
19599;SDS011;9947;57.722;12.012;2023-07-13T11:28:06;6.68;;;2.03;;
19599;SDS011;9947;57.722;12.012;2023-07-13T11:30:46;5.78;;;2.20;;
19599;SDS011;9947;57.722;12.012;2023-07-13T11:33:16;4.30;;;2.00;;
19599;SDS011;9947;57.722;12.012;2023-07-13T11:35:46;6.28;;;1.83;;
19599;SDS011;9947;57.722;12.012;2023-07-13T11:38:21;4.85;;;1.73;;
19599;SDS011;9947;57.722;12.012;2023-07-13T11:40:59;4.55;;;1.52;;
19599;SDS011;9947;57.722;12.012;2023-07-13T11:43:32;6.32;;;1.88;;
19599;SDS011;9947;57.722;12.012;2023-07-13T11:46:11;4.43;;;1.70;;
19599;SDS011;9947;57.722;12.012;2023-07-13T11:48:42;3.75;;;1.73;;
19599;SDS011;9947;57.722;12.012;2023-07-13T11:51:15;6.82;;;1.83;;
19599;SDS011;9947;57.722;12.012;2023-07-13T11:53:48;3.53;;;1.60;;
19599;SDS011;9947;57.722;12.012;2023-07-13T11:56:17;4.47;;;1.88;;
19599;SDS011;9947;57.722;12.012;2023-07-13T11:58:49;5.00;;;2.23;;
19599;SDS011;9947;57.722;12.012;2023-07-13T12:01:21;7.07;;;2.00;;
19599;SDS011;9947;57.722;12.012;2023-07-13T12:03:50;6.57;;;2.20;;
19599;SDS011;9947;57.722;12.012;2023-07-13T12:06:27;7.30;;;2.20;;
19599;SDS011;9947;57.722;12.012;2023-07-13T12:08:58;5.40;;;2.07;;
19599;SDS011;9947;57.722;12.012;2023-07-13T12:11:28;5.20;;;1.90;;
19599;SDS011;9947;57.722;12.012;2023-07-13T12:14:00;3.30;;;1.87;;
19599;SDS011;9947;57.722;12.012;2023-07-13T12:16:29;4.13;;;1.77;;
19599;SDS011;9947;57.722;12.012;2023-07-13T12:18:59;4.27;;;1.90;;
19599;SDS011;9947;57.722;12.012;2023-07-13T12:21:32;4.00;;;1.83;;
19599;SDS011;9947;57.722;12.012;2023-07-13T12:24:01;6.90;;;1.93;;
19599;SDS011;9947;57.722;12.012;2023-07-13T12:26:31;4.53;;;2.00;;
19599;SDS011;9947;57.722;12.012;2023-07-13T12:28:58;4.30;;;1.90;;
19599;SDS011;9947;57.722;12.012;2023-07-13T12:31:35;4.33;;;2.00;;
19599;SDS011;9947;57.722;12.012;2023-07-13T12:34:06;4.40;;;1.80;;
19599;SDS011;9947;57.722;12.012;2023-07-13T12:36:38;4.07;;;1.77;;
19599;SDS011;9947;57.722;12.012;2023-07-13T12:39:15;3.67;;;2.00;;
19599;SDS011;9947;57.722;12.012;2023-07-13T12:41:45;9.07;;;2.17;;
19599;SDS011;9947;57.722;12.012;2023-07-13T12:44:17;5.43;;;1.50;;
19599;SDS011;9947;57.722;12.012;2023-07-13T12:46:55;6.10;;;1.88;;
19599;SDS011;9947;57.722;12.012;2023-07-13T12:49:28;6.57;;;1.42;;
19599;SDS011;9947;57.722;12.012;2023-07-13T12:52:01;3.08;;;1.65;;
19599;SDS011;9947;57.722;12.012;2023-07-13T12:54:31;2.28;;;1.20;;
19599;SDS011;9947;57.722;12.012;2023-07-13T12:56:58;4.03;;;1.45;;
19599;SDS011;9947;57.722;12.012;2023-07-13T12:59:31;4.40;;;1.17;;
19599;SDS011;9947;57.722;12.012;2023-07-13T13:02:04;3.53;;;1.10;;
19599;SDS011;9947;57.722;12.012;2023-07-13T13:04:49;2.67;;;1.20;;
19599;SDS011;9947;57.722;12.012;2023-07-13T13:07:16;3.00;;;1.20;;
19599;SDS011;9947;57.722;12.012;2023-07-13T13:09:45;4.43;;;1.10;;
19599;SDS011;9947;57.722;12.012;2023-07-13T13:12:13;3.67;;;1.30;;
19599;SDS011;9947;57.722;12.012;2023-07-13T13:14:44;5.23;;;1.60;;
19599;SDS011;9947;57.722;12.012;2023-07-13T13:17:16;2.77;;;1.40;;
19599;SDS011;9947;57.722;12.012;2023-07-13T13:19:50;5.23;;;1.53;;
19599;SDS011;9947;57.722;12.012;2023-07-13T13:22:20;7.90;;;1.70;;
19599;SDS011;9947;57.722;12.012;2023-07-13T13:24:48;5.55;;;1.55;;
19599;SDS011;9947;57.722;12.012;2023-07-13T13:27:15;3.07;;;1.53;;
19599;SDS011;9947;57.722;12.012;2023-07-13T13:29:49;4.10;;;1.57;;
19599;SDS011;9947;57.722;12.012;2023-07-13T13:32:18;3.55;;;1.70;;
19599;SDS011;9947;57.722;12.012;2023-07-13T13:34:45;5.90;;;1.83;;
19599;SDS011;9947;57.722;12.012;2023-07-13T13:37:18;5.05;;;1.83;;
19599;SDS011;9947;57.722;12.012;2023-07-13T13:39:48;4.63;;;1.80;;
19599;SDS011;9947;57.722;12.012;2023-07-13T13:42:17;5.80;;;1.80;;
19599;SDS011;9947;57.722;12.012;2023-07-13T13:44:46;4.90;;;1.65;;
19599;SDS011;9947;57.722;12.012;2023-07-13T13:47:20;5.38;;;1.67;;
19599;SDS011;9947;57.722;12.012;2023-07-13T13:49:55;2.92;;;1.70;;
19599;SDS011;9947;57.722;12.012;2023-07-13T13:52:23;2.90;;;1.30;;
19599;SDS011;9947;57.722;12.012;2023-07-13T13:54:50;4.20;;;1.58;;
19599;SDS011;9947;57.722;12.012;2023-07-13T13:57:24;5.00;;;1.98;;
19599;SDS011;9947;57.722;12.012;2023-07-13T13:59:51;2.55;;;1.40;;
19599;SDS011;9947;57.722;12.012;2023-07-13T14:02:26;4.40;;;1.90;;
19599;SDS011;9947;57.722;12.012;2023-07-13T14:04:59;4.70;;;1.50;;
19599;SDS011;9947;57.722;12.012;2023-07-13T14:07:34;4.00;;;1.48;;
19599;SDS011;9947;57.722;12.012;2023-07-13T14:10:08;2.60;;;1.50;;
19599;SDS011;9947;57.722;12.012;2023-07-13T14:12:40;4.90;;;1.48;;
19599;SDS011;9947;57.722;12.012;2023-07-13T14:15:14;1.80;;;1.33;;
19599;SDS011;9947;57.722;12.012;2023-07-13T14:17:47;8.38;;;1.60;;
19599;SDS011;9947;57.722;12.012;2023-07-13T14:20:15;2.17;;;1.33;;
19599;SDS011;9947;57.722;12.012;2023-07-13T14:22:43;3.58;;;1.58;;
19599;SDS011;9947;57.722;12.012;2023-07-13T14:25:10;2.83;;;1.38;;
19599;SDS011;9947;57.722;12.012;2023-07-13T14:27:39;4.15;;;1.58;;
19599;SDS011;9947;57.722;12.012;2023-07-13T14:30:11;4.57;;;1.67;;
19599;SDS011;9947;57.722;12.012;2023-07-13T14:32:48;4.95;;;1.40;;
19599;SDS011;9947;57.722;12.012;2023-07-13T14:35:18;3.78;;;1.75;;
19599;SDS011;9947;57.722;12.012;2023-07-13T14:37:50;4.97;;;1.80;;
19599;SDS011;9947;57.722;12.012;2023-07-13T14:40:29;3.75;;;1.60;;
19599;SDS011;9947;57.722;12.012;2023-07-13T14:42:59;2.47;;;1.42;;
19599;SDS011;9947;57.722;12.012;2023-07-13T14:45:29;3.07;;;1.50;;
19599;SDS011;9947;57.722;12.012;2023-07-13T14:48:00;4.47;;;1.70;;
19599;SDS011;9947;57.722;12.012;2023-07-13T14:50:30;4.93;;;1.60;;
19599;SDS011;9947;57.722;12.012;2023-07-13T14:53:00;4.90;;;1.57;;
19599;SDS011;9947;57.722;12.012;2023-07-13T14:55:27;2.45;;;1.52;;
19599;SDS011;9947;57.722;12.012;2023-07-13T14:57:55;4.25;;;1.63;;
19599;SDS011;9947;57.722;12.012;2023-07-13T15:00:24;3.25;;;1.70;;
19599;SDS011;9947;57.722;12.012;2023-07-13T15:02:54;5.65;;;1.90;;
19599;SDS011;9947;57.722;12.012;2023-07-13T15:05:28;3.53;;;1.83;;
19599;SDS011;9947;57.722;12.012;2023-07-13T15:07:57;3.60;;;1.50;;
19599;SDS011;9947;57.722;12.012;2023-07-13T15:10:28;5.57;;;1.90;;
19599;SDS011;9947;57.722;12.012;2023-07-13T15:12:59;3.53;;;1.70;;
19599;SDS011;9947;57.722;12.012;2023-07-13T15:15:28;4.77;;;1.63;;
19599;SDS011;9947;57.722;12.012;2023-07-13T15:18:01;7.47;;;2.20;;
19599;SDS011;9947;57.722;12.012;2023-07-13T15:20:38;3.93;;;1.80;;